sensor_id;sensor_type;location;lat;lon;timestamp;P1;durP1;ratioP1;P2;durP2;ratioP2
29006;SDS011;16104;48.642;9.008;2023-03-01T00:01:10;16.23;;;10.30;;
29006;SDS011;16104;48.642;9.008;2023-03-01T00:06:11;19.05;;;12.07;;
29006;SDS011;16104;48.642;9.008;2023-03-01T00:11:14;18.95;;;12.43;;
29006;SDS011;16104;48.642;9.008;2023-03-01T00:16:15;19.25;;;11.07;;
29006;SDS011;16104;48.642;9.008;2023-03-01T00:21:13;18.73;;;11.63;;
29006;SDS011;16104;48.642;9.008;2023-03-01T00:26:10;18.20;;;11.27;;
29006;SDS011;16104;48.642;9.008;2023-03-01T00:31:09;19.17;;;11.98;;
29006;SDS011;16104;48.642;9.008;2023-03-01T00:36:07;15.85;;;9.68;;
29006;SDS011;16104;48.642;9.008;2023-03-01T00:41:05;20.08;;;12.00;;
29006;SDS011;16104;48.642;9.008;2023-03-01T00:46:10;17.65;;;11.07;;
29006;SDS011;16104;48.642;9.008;2023-03-01T00:51:14;15.38;;;9.18;;
29006;SDS011;16104;48.642;9.008;2023-03-01T00:56:14;22.17;;;11.50;;
29006;SDS011;16104;48.642;9.008;2023-03-01T02:02:14;23.02;;;13.07;;
29006;SDS011;16104;48.642;9.008;2023-03-01T02:07:18;20.92;;;13.07;;
29006;SDS011;16104;48.642;9.008;2023-03-01T02:12:16;22.60;;;13.75;;
29006;SDS011;16104;48.642;9.008;2023-03-01T03:03:03;24.48;;;14.73;;
29006;SDS011;16104;48.642;9.008;2023-03-01T03:07:59;25.73;;;15.10;;
29006;SDS011;16104;48.642;9.008;2023-03-01T03:12:57;23.85;;;13.90;;
29006;SDS011;16104;48.642;9.008;2023-03-01T04:03:46;25.10;;;15.70;;
29006;SDS011;16104;48.642;9.008;2023-03-01T04:08:41;27.77;;;16.38;;
29006;SDS011;16104;48.642;9.008;2023-03-01T04:13:37;29.40;;;17.02;;
29006;SDS011;16104;48.642;9.008;2023-03-01T04:18:32;30.25;;;17.60;;
29006;SDS011;16104;48.642;9.008;2023-03-01T04:23:28;26.90;;;16.42;;
29006;SDS011;16104;48.642;9.008;2023-03-01T04:28:28;27.67;;;16.02;;
29006;SDS011;16104;48.642;9.008;2023-03-01T04:33:29;24.02;;;13.65;;
29006;SDS011;16104;48.642;9.008;2023-03-01T04:38:24;26.48;;;15.45;;
29006;SDS011;16104;48.642;9.008;2023-03-01T04:43:20;27.20;;;15.45;;
29006;SDS011;16104;48.642;9.008;2023-03-01T04:48:15;27.85;;;15.63;;
29006;SDS011;16104;48.642;9.008;2023-03-01T04:53:11;25.45;;;16.48;;
29006;SDS011;16104;48.642;9.008;2023-03-01T04:58:06;28.58;;;17.13;;
29006;SDS011;16104;48.642;9.008;2023-03-01T05:03:02;27.05;;;16.95;;
29006;SDS011;16104;48.642;9.008;2023-03-01T05:07:59;26.52;;;15.43;;
29006;SDS011;16104;48.642;9.008;2023-03-01T05:12:56;21.77;;;13.10;;
29006;SDS011;16104;48.642;9.008;2023-03-01T05:17:52;29.10;;;16.13;;
29006;SDS011;16104;48.642;9.008;2023-03-01T05:22:49;26.17;;;16.25;;
29006;SDS011;16104;48.642;9.008;2023-03-01T05:27:46;28.23;;;16.55;;
29006;SDS011;16104;48.642;9.008;2023-03-01T05:32:43;26.90;;;16.38;;
29006;SDS011;16104;48.642;9.008;2023-03-01T05:37:43;30.75;;;18.52;;
29006;SDS011;16104;48.642;9.008;2023-03-01T05:42:45;26.77;;;16.55;;
29006;SDS011;16104;48.642;9.008;2023-03-01T05:47:43;26.60;;;16.02;;
29006;SDS011;16104;48.642;9.008;2023-03-01T05:52:39;30.27;;;17.27;;
29006;SDS011;16104;48.642;9.008;2023-03-01T05:57:35;25.95;;;16.73;;
29006;SDS011;16104;48.642;9.008;2023-03-01T06:02:30;28.52;;;17.40;;
29006;SDS011;16104;48.642;9.008;2023-03-01T06:07:26;27.75;;;16.85;;
29006;SDS011;16104;48.642;9.008;2023-03-01T06:12:21;26.73;;;16.27;;
29006;SDS011;16104;48.642;9.008;2023-03-01T06:17:17;29.90;;;16.80;;
29006;SDS011;16104;48.642;9.008;2023-03-01T06:22:12;27.30;;;16.90;;
29006;SDS011;16104;48.642;9.008;2023-03-01T06:27:08;28.23;;;17.35;;
29006;SDS011;16104;48.642;9.008;2023-03-01T06:32:04;30.35;;;16.70;;
29006;SDS011;16104;48.642;9.008;2023-03-01T06:36:59;28.55;;;16.85;;
29006;SDS011;16104;48.642;9.008;2023-03-01T06:41:57;28.80;;;17.95;;
29006;SDS011;16104;48.642;9.008;2023-03-01T06:46:53;29.23;;;18.35;;
29006;SDS011;16104;48.642;9.008;2023-03-01T06:51:48;30.77;;;18.48;;
29006;SDS011;16104;48.642;9.008;2023-03-01T06:56:46;37.30;;;24.33;;
29006;SDS011;16104;48.642;9.008;2023-03-01T07:01:42;30.50;;;19.55;;
29006;SDS011;16104;48.642;9.008;2023-03-01T07:06:38;30.48;;;18.80;;
29006;SDS011;16104;48.642;9.008;2023-03-01T07:11:34;33.78;;;19.88;;
29006;SDS011;16104;48.642;9.008;2023-03-01T07:16:30;32.40;;;21.30;;
29006;SDS011;16104;48.642;9.008;2023-03-01T07:21:25;33.50;;;21.63;;
29006;SDS011;16104;48.642;9.008;2023-03-01T07:26:21;30.67;;;18.95;;
29006;SDS011;16104;48.642;9.008;2023-03-01T07:31:16;35.38;;;20.60;;
29006;SDS011;16104;48.642;9.008;2023-03-01T07:36:12;33.97;;;21.00;;
29006;SDS011;16104;48.642;9.008;2023-03-01T07:41:07;184.50;;;79.43;;
29006;SDS011;16104;48.642;9.008;2023-03-01T07:46:03;160.38;;;62.88;;
29006;SDS011;16104;48.642;9.008;2023-03-01T07:51:00;48.15;;;28.10;;
29006;SDS011;16104;48.642;9.008;2023-03-01T07:56:03;39.90;;;21.30;;
29006;SDS011;16104;48.642;9.008;2023-03-01T08:01:01;37.35;;;22.48;;
29006;SDS011;16104;48.642;9.008;2023-03-01T08:06:01;47.03;;;26.20;;
29006;SDS011;16104;48.642;9.008;2023-03-01T08:10:59;39.42;;;20.17;;
29006;SDS011;16104;48.642;9.008;2023-03-01T08:16:00;38.05;;;20.83;;
29006;SDS011;16104;48.642;9.008;2023-03-01T08:21:10;33.17;;;19.02;;
29006;SDS011;16104;48.642;9.008;2023-03-01T08:26:09;30.70;;;18.90;;
29006;SDS011;16104;48.642;9.008;2023-03-01T08:31:51;30.15;;;18.45;;
29006;SDS011;16104;48.642;9.008;2023-03-01T08:36:31;34.17;;;18.67;;
29006;SDS011;16104;48.642;9.008;2023-03-01T08:41:30;43.08;;;28.88;;
29006;SDS011;16104;48.642;9.008;2023-03-01T08:46:29;37.13;;;23.13;;
29006;SDS011;16104;48.642;9.008;2023-03-01T08:51:27;28.90;;;18.88;;
29006;SDS011;16104;48.642;9.008;2023-03-01T08:56:24;36.70;;;23.90;;
29006;SDS011;16104;48.642;9.008;2023-03-01T09:01:21;37.47;;;23.90;;
29006;SDS011;16104;48.642;9.008;2023-03-01T09:06:16;35.88;;;22.65;;
29006;SDS011;16104;48.642;9.008;2023-03-01T09:11:14;47.03;;;29.30;;
29006;SDS011;16104;48.642;9.008;2023-03-01T09:16:12;94.40;;;46.50;;
29006;SDS011;16104;48.642;9.008;2023-03-01T09:21:13;37.95;;;21.48;;
29006;SDS011;16104;48.642;9.008;2023-03-01T09:26:13;73.05;;;40.30;;
29006;SDS011;16104;48.642;9.008;2023-03-01T09:31:14;34.58;;;22.58;;
29006;SDS011;16104;48.642;9.008;2023-03-01T09:36:12;32.50;;;20.00;;
29006;SDS011;16104;48.642;9.008;2023-03-01T09:41:26;35.08;;;21.65;;
29006;SDS011;16104;48.642;9.008;2023-03-01T09:46:42;31.25;;;19.60;;
29006;SDS011;16104;48.642;9.008;2023-03-01T09:51:40;32.15;;;19.42;;
29006;SDS011;16104;48.642;9.008;2023-03-01T09:56:39;32.95;;;19.73;;
29006;SDS011;16104;48.642;9.008;2023-03-01T10:01:38;30.50;;;19.15;;
29006;SDS011;16104;48.642;9.008;2023-03-01T10:06:36;31.80;;;18.83;;
29006;SDS011;16104;48.642;9.008;2023-03-01T10:11:53;36.03;;;20.75;;
29006;SDS011;16104;48.642;9.008;2023-03-01T10:16:55;32.45;;;19.35;;
29006;SDS011;16104;48.642;9.008;2023-03-01T10:21:59;29.23;;;18.92;;
29006;SDS011;16104;48.642;9.008;2023-03-01T10:27:01;29.35;;;18.80;;
29006;SDS011;16104;48.642;9.008;2023-03-01T10:32:06;27.98;;;18.60;;
29006;SDS011;16104;48.642;9.008;2023-03-01T10:37:17;30.70;;;18.35;;
29006;SDS011;16104;48.642;9.008;2023-03-01T10:42:19;30.00;;;18.98;;
29006;SDS011;16104;48.642;9.008;2023-03-01T10:47:25;27.48;;;19.38;;
29006;SDS011;16104;48.642;9.008;2023-03-01T10:52:27;33.08;;;19.63;;
29006;SDS011;16104;48.642;9.008;2023-03-01T10:57:31;31.35;;;19.17;;
29006;SDS011;16104;48.642;9.008;2023-03-01T11:02:31;26.58;;;18.15;;
29006;SDS011;16104;48.642;9.008;2023-03-01T11:07:29;23.40;;;16.30;;
29006;SDS011;16104;48.642;9.008;2023-03-01T11:12:24;27.45;;;18.90;;
29006;SDS011;16104;48.642;9.008;2023-03-01T11:17:21;27.55;;;18.20;;
29006;SDS011;16104;48.642;9.008;2023-03-01T11:22:26;28.42;;;17.65;;
29006;SDS011;16104;48.642;9.008;2023-03-01T11:27:24;24.88;;;16.65;;
29006;SDS011;16104;48.642;9.008;2023-03-01T11:32:26;26.70;;;17.60;;
29006;SDS011;16104;48.642;9.008;2023-03-01T11:42:40;24.40;;;16.90;;
29006;SDS011;16104;48.642;9.008;2023-03-01T11:47:47;24.77;;;16.65;;
29006;SDS011;16104;48.642;9.008;2023-03-01T12:08:59;26.23;;;15.93;;
29006;SDS011;16104;48.642;9.008;2023-03-01T12:19:15;24.60;;;16.63;;
29006;SDS011;16104;48.642;9.008;2023-03-01T12:24:29;26.98;;;16.88;;
29006;SDS011;16104;48.642;9.008;2023-03-01T12:51:08;24.73;;;15.30;;
29006;SDS011;16104;48.642;9.008;2023-03-01T12:56:10;21.55;;;15.38;;
29006;SDS011;16104;48.642;9.008;2023-03-01T13:11:50;21.77;;;16.05;;
29006;SDS011;16104;48.642;9.008;2023-03-01T13:16:45;22.08;;;15.32;;
29006;SDS011;16104;48.642;9.008;2023-03-01T13:21:44;20.88;;;15.25;;
29006;SDS011;16104;48.642;9.008;2023-03-01T13:37:08;20.40;;;14.95;;
29006;SDS011;16104;48.642;9.008;2023-03-01T13:42:28;28.08;;;15.68;;
29006;SDS011;16104;48.642;9.008;2023-03-01T13:47:32;25.90;;;16.63;;
29006;SDS011;16104;48.642;9.008;2023-03-01T13:57:37;21.63;;;15.82;;
29006;SDS011;16104;48.642;9.008;2023-03-01T14:02:35;24.50;;;15.73;;
29006;SDS011;16104;48.642;9.008;2023-03-01T14:07:31;21.67;;;15.07;;
29006;SDS011;16104;48.642;9.008;2023-03-01T14:12:37;19.20;;;13.63;;
29006;SDS011;16104;48.642;9.008;2023-03-01T14:17:55;17.98;;;13.13;;
29006;SDS011;16104;48.642;9.008;2023-03-01T14:22:54;21.67;;;12.60;;
29006;SDS011;16104;48.642;9.008;2023-03-01T14:27:54;18.58;;;12.48;;
29006;SDS011;16104;48.642;9.008;2023-03-01T14:32:57;22.80;;;12.95;;
29006;SDS011;16104;48.642;9.008;2023-03-01T14:37:54;20.30;;;12.88;;
29006;SDS011;16104;48.642;9.008;2023-03-01T14:42:50;20.55;;;13.93;;
29006;SDS011;16104;48.642;9.008;2023-03-01T14:47:46;20.92;;;14.13;;
29006;SDS011;16104;48.642;9.008;2023-03-01T14:52:45;19.50;;;14.73;;
29006;SDS011;16104;48.642;9.008;2023-03-01T14:57:43;21.88;;;14.93;;
29006;SDS011;16104;48.642;9.008;2023-03-01T15:02:41;21.35;;;12.93;;
29006;SDS011;16104;48.642;9.008;2023-03-01T15:07:42;19.33;;;15.00;;
29006;SDS011;16104;48.642;9.008;2023-03-01T15:12:43;21.05;;;14.90;;
29006;SDS011;16104;48.642;9.008;2023-03-01T15:17:39;21.08;;;14.82;;
29006;SDS011;16104;48.642;9.008;2023-03-01T15:22:34;21.58;;;15.43;;
29006;SDS011;16104;48.642;9.008;2023-03-01T15:27:30;21.35;;;15.95;;
29006;SDS011;16104;48.642;9.008;2023-03-01T15:32:27;23.45;;;15.70;;
29006;SDS011;16104;48.642;9.008;2023-03-01T15:42:44;24.08;;;15.77;;
29006;SDS011;16104;48.642;9.008;2023-03-01T15:47:40;22.40;;;15.60;;
29006;SDS011;16104;48.642;9.008;2023-03-01T15:52:40;25.88;;;16.52;;
29006;SDS011;16104;48.642;9.008;2023-03-01T15:57:38;19.98;;;14.82;;
29006;SDS011;16104;48.642;9.008;2023-03-01T16:02:33;29.20;;;17.08;;
29006;SDS011;16104;48.642;9.008;2023-03-01T16:07:29;21.77;;;15.10;;
29006;SDS011;16104;48.642;9.008;2023-03-01T16:12:26;25.88;;;17.42;;
29006;SDS011;16104;48.642;9.008;2023-03-01T16:17:21;24.13;;;16.70;;
29006;SDS011;16104;48.642;9.008;2023-03-01T16:22:17;28.00;;;15.77;;
29006;SDS011;16104;48.642;9.008;2023-03-01T16:27:12;32.13;;;16.65;;
29006;SDS011;16104;48.642;9.008;2023-03-01T16:32:10;25.58;;;17.95;;
29006;SDS011;16104;48.642;9.008;2023-03-01T16:37:05;29.10;;;16.50;;
29006;SDS011;16104;48.642;9.008;2023-03-01T16:42:01;30.90;;;19.42;;
29006;SDS011;16104;48.642;9.008;2023-03-01T16:46:56;29.20;;;18.38;;
29006;SDS011;16104;48.642;9.008;2023-03-01T16:51:55;27.50;;;18.45;;
29006;SDS011;16104;48.642;9.008;2023-03-01T16:56:51;30.13;;;18.00;;
29006;SDS011;16104;48.642;9.008;2023-03-01T17:01:46;30.35;;;17.75;;
29006;SDS011;16104;48.642;9.008;2023-03-01T17:06:42;41.00;;;27.60;;
29006;SDS011;16104;48.642;9.008;2023-03-01T17:11:37;31.27;;;20.58;;
29006;SDS011;16104;48.642;9.008;2023-03-01T17:16:33;30.83;;;21.08;;
29006;SDS011;16104;48.642;9.008;2023-03-01T17:21:30;30.42;;;17.23;;
29006;SDS011;16104;48.642;9.008;2023-03-01T17:26:25;32.90;;;17.77;;
29006;SDS011;16104;48.642;9.008;2023-03-01T17:31:23;32.35;;;19.00;;
29006;SDS011;16104;48.642;9.008;2023-03-01T17:36:18;31.25;;;16.67;;
29006;SDS011;16104;48.642;9.008;2023-03-01T17:41:14;28.83;;;15.50;;
29006;SDS011;16104;48.642;9.008;2023-03-01T17:46:12;28.08;;;17.00;;
29006;SDS011;16104;48.642;9.008;2023-03-01T17:51:09;31.42;;;17.77;;
29006;SDS011;16104;48.642;9.008;2023-03-01T17:56:05;28.35;;;17.33;;
29006;SDS011;16104;48.642;9.008;2023-03-01T18:01:08;31.38;;;18.95;;
29006;SDS011;16104;48.642;9.008;2023-03-01T18:06:18;50.30;;;22.45;;
29006;SDS011;16104;48.642;9.008;2023-03-01T18:11:16;32.85;;;19.35;;
29006;SDS011;16104;48.642;9.008;2023-03-01T18:16:13;30.52;;;17.85;;
29006;SDS011;16104;48.642;9.008;2023-03-01T18:21:10;28.05;;;16.95;;
29006;SDS011;16104;48.642;9.008;2023-03-01T18:26:08;25.85;;;16.15;;
29006;SDS011;16104;48.642;9.008;2023-03-01T18:31:06;22.95;;;14.45;;
29006;SDS011;16104;48.642;9.008;2023-03-01T18:36:05;25.17;;;15.55;;
29006;SDS011;16104;48.642;9.008;2023-03-01T18:41:09;28.27;;;16.08;;
29006;SDS011;16104;48.642;9.008;2023-03-01T18:46:05;28.52;;;17.88;;
29006;SDS011;16104;48.642;9.008;2023-03-01T18:51:10;33.10;;;19.33;;
29006;SDS011;16104;48.642;9.008;2023-03-01T18:56:08;27.58;;;17.20;;
29006;SDS011;16104;48.642;9.008;2023-03-01T19:01:04;30.88;;;17.42;;
29006;SDS011;16104;48.642;9.008;2023-03-01T19:06:06;31.95;;;18.42;;
29006;SDS011;16104;48.642;9.008;2023-03-01T19:11:02;29.25;;;17.40;;
29006;SDS011;16104;48.642;9.008;2023-03-01T19:16:10;26.73;;;17.52;;
29006;SDS011;16104;48.642;9.008;2023-03-01T19:21:07;28.27;;;18.70;;
29006;SDS011;16104;48.642;9.008;2023-03-01T19:26:05;28.52;;;18.13;;
29006;SDS011;16104;48.642;9.008;2023-03-01T19:31:04;27.23;;;17.02;;
29006;SDS011;16104;48.642;9.008;2023-03-01T19:36:02;32.47;;;19.33;;
29006;SDS011;16104;48.642;9.008;2023-03-01T19:41:02;31.88;;;16.85;;
29006;SDS011;16104;48.642;9.008;2023-03-01T19:46:00;33.28;;;19.15;;
29006;SDS011;16104;48.642;9.008;2023-03-01T19:50:55;29.05;;;17.67;;
29006;SDS011;16104;48.642;9.008;2023-03-01T19:55:58;40.28;;;21.13;;
29006;SDS011;16104;48.642;9.008;2023-03-01T20:00:56;33.75;;;19.38;;
29006;SDS011;16104;48.642;9.008;2023-03-01T20:05:52;28.50;;;17.23;;
29006;SDS011;16104;48.642;9.008;2023-03-01T20:10:48;28.33;;;17.52;;
29006;SDS011;16104;48.642;9.008;2023-03-01T20:15:43;32.42;;;17.77;;
29006;SDS011;16104;48.642;9.008;2023-03-01T20:20:39;32.20;;;16.92;;
29006;SDS011;16104;48.642;9.008;2023-03-01T20:25:35;36.85;;;19.65;;
29006;SDS011;16104;48.642;9.008;2023-03-01T20:30:30;34.50;;;18.83;;
29006;SDS011;16104;48.642;9.008;2023-03-01T20:35:26;32.88;;;19.15;;
29006;SDS011;16104;48.642;9.008;2023-03-01T20:40:22;39.20;;;22.48;;
29006;SDS011;16104;48.642;9.008;2023-03-01T20:45:22;60.00;;;34.70;;
29006;SDS011;16104;48.642;9.008;2023-03-01T20:50:18;34.63;;;18.52;;
29006;SDS011;16104;48.642;9.008;2023-03-01T20:55:14;31.08;;;18.23;;
29006;SDS011;16104;48.642;9.008;2023-03-01T21:00:10;34.00;;;19.73;;
29006;SDS011;16104;48.642;9.008;2023-03-01T21:05:06;85.93;;;43.03;;
29006;SDS011;16104;48.642;9.008;2023-03-01T21:10:02;175.25;;;76.10;;
29006;SDS011;16104;48.642;9.008;2023-03-01T21:14:57;89.85;;;55.13;;
29006;SDS011;16104;48.642;9.008;2023-03-01T21:19:53;59.00;;;37.38;;
29006;SDS011;16104;48.642;9.008;2023-03-01T21:24:49;41.58;;;27.13;;
29006;SDS011;16104;48.642;9.008;2023-03-01T21:29:45;29.83;;;18.70;;
29006;SDS011;16104;48.642;9.008;2023-03-01T21:34:41;33.83;;;22.98;;
29006;SDS011;16104;48.642;9.008;2023-03-01T21:39:38;31.40;;;18.58;;
29006;SDS011;16104;48.642;9.008;2023-03-01T21:44:34;29.75;;;17.75;;
29006;SDS011;16104;48.642;9.008;2023-03-01T21:49:29;31.45;;;18.98;;
29006;SDS011;16104;48.642;9.008;2023-03-01T21:54:25;32.80;;;18.55;;
29006;SDS011;16104;48.642;9.008;2023-03-01T21:59:21;29.73;;;18.65;;
29006;SDS011;16104;48.642;9.008;2023-03-01T22:04:17;32.58;;;19.58;;
29006;SDS011;16104;48.642;9.008;2023-03-01T22:09:20;31.38;;;18.73;;
29006;SDS011;16104;48.642;9.008;2023-03-01T22:14:17;34.25;;;19.75;;
29006;SDS011;16104;48.642;9.008;2023-03-01T22:19:13;30.90;;;18.52;;
29006;SDS011;16104;48.642;9.008;2023-03-01T22:24:10;33.17;;;19.58;;
29006;SDS011;16104;48.642;9.008;2023-03-01T22:29:07;31.98;;;19.30;;
29006;SDS011;16104;48.642;9.008;2023-03-01T22:34:06;36.93;;;21.63;;
29006;SDS011;16104;48.642;9.008;2023-03-01T22:39:02;34.78;;;19.50;;
29006;SDS011;16104;48.642;9.008;2023-03-01T22:43:58;34.53;;;20.05;;
29006;SDS011;16104;48.642;9.008;2023-03-01T22:48:53;31.70;;;19.05;;
29006;SDS011;16104;48.642;9.008;2023-03-01T22:53:49;31.80;;;19.55;;
29006;SDS011;16104;48.642;9.008;2023-03-01T22:58:45;34.33;;;19.98;;
29006;SDS011;16104;48.642;9.008;2023-03-01T23:03:41;33.28;;;19.08;;
29006;SDS011;16104;48.642;9.008;2023-03-01T23:08:36;31.00;;;18.52;;
29006;SDS011;16104;48.642;9.008;2023-03-01T23:13:32;37.58;;;20.15;;
29006;SDS011;16104;48.642;9.008;2023-03-01T23:18:27;36.00;;;18.42;;
29006;SDS011;16104;48.642;9.008;2023-03-01T23:23:23;37.80;;;21.42;;
29006;SDS011;16104;48.642;9.008;2023-03-01T23:28:18;34.20;;;19.30;;
29006;SDS011;16104;48.642;9.008;2023-03-01T23:33:14;35.63;;;20.23;;
29006;SDS011;16104;48.642;9.008;2023-03-01T23:38:09;31.80;;;18.42;;
29006;SDS011;16104;48.642;9.008;2023-03-01T23:43:05;32.08;;;19.30;;
29006;SDS011;16104;48.642;9.008;2023-03-01T23:48:00;31.83;;;19.77;;
29006;SDS011;16104;48.642;9.008;2023-03-01T23:52:56;33.20;;;19.70;;
29006;SDS011;16104;48.642;9.008;2023-03-01T23:57:52;36.05;;;20.10;;
